Stations météo

réclame
Mon MeteoGroup
Ell, Pays-Bas (6377): Température de l'air & dewpoint: 14.09.2020 18:00:00 - 20.09.2020 18:00:00 (CEST)Ell, Pays-Bas (6377): Température de l'air 5cm: 14.09.2020 18:00:00 - 20.09.2020 18:00:00 (CEST)Ell, Pays-Bas (6377): Vitesse du vent & gusts: 14.09.2020 18:00:00 - 20.09.2020 18:00:00 (CEST)Ell, Pays-Bas (6377): Direction du vent: 14.09.2020 18:00:00 - 20.09.2020 18:00:00 (CEST)Ell, Pays-Bas (6377): visibility: 14.09.2020 18:00:00 - 20.09.2020 18:00:00 (CEST)Ell, Pays-Bas (6377): Quantités de précipitations: 14.09.2020 18:00:00 - 20.09.2020 18:00:00 (CEST)
Date & Time tt [°C] td [°C] tt 5cm [°C] ff [km/h] ff [knt] fx [km/h] fx [knt] dd vv [km] rr [mm]
20.09.2020 18:00:00 22,6 8,0 21,7 11 6 22 12 N 75 0,0
20.09.2020 17:00:00 23,0 8,0 23,1 11 6 22 12 NNE 75 0,0
20.09.2020 16:00:00 23,6 8,9 24,7 11 6 22 12 N 73 0,0
20.09.2020 15:00:00 23,4 9,4 25,9 11 6 18 10 NNE 67 0,0
20.09.2020 14:00:00 21,9 9,5 24,4 7 4 18 10 N 55 0,0
20.09.2020 13:00:00 21,2 9,9 24,0 7 4 14 8 NNE 55 0,0
20.09.2020 12:00:00 19,2 8,7 22,3 7 4 11 6 NNE 60 0,0
20.09.2020 11:00:00 16,7 9,3 18,8 7 4 14 8 NE 53 0,0
20.09.2020 10:00:00 14,6 8,8 15,2 7 4 11 6 NNE 50 0,0
20.09.2020 09:00:00 11,8 7,6 11,1 7 4 11 6 NE 47 0,0
20.09.2020 08:00:00 8,9 6,1 4,6 4 2 7 4 NNE 40 0,0
20.09.2020 07:00:00 8,1 6,2 3,7 4 2 7 4 NE 27 0,0
20.09.2020 06:00:00 9,2 6,4 4,4 7 4 7 4 NNE 29 0,0
20.09.2020 05:00:00 9,6 6,6 6,3 4 2 7 4 NNE 40 0,0
20.09.2020 04:00:00 11,8 6,9 6,5 4 2 7 4 NNE 42 0,0
20.09.2020 03:00:00 12,2 7,1 7,7 4 2 7 4 NNE 41 0,0
20.09.2020 02:00:00 13,4 7,0 8,7 7 4 11 6 NE 67 0,0
20.09.2020 01:00:00 14,2 7,3 9,6 7 4 11 6 NE 74 0,0
20.09.2020 00:00:00 14,2 8,0 10,8 7 4 11 6 NE 74 0,0
19.09.2020 23:00:00 15,2 8,4 11,4 7 4 11 6 NE 75 0,0
19.09.2020 22:00:00 16,9 8,8 12,7 7 4 18 10 NE 68 0,0
19.09.2020 21:00:00 17,7 9,5 14,4 11 6 14 8 NE 70 0,0
19.09.2020 20:00:00 19,7 9,8 14,8 7 4 11 6 NNE 61 0,0
19.09.2020 19:00:00 21,8 11,4 19,8 7 4 14 8 NE 14 0,0
19.09.2020 18:00:00 24,5 10,4 24,2 7 4 14 8 E 73 0,0
19.09.2020 17:00:00 24,9 12,0 26,0 7 4 18 10 ENE 72 0,0
19.09.2020 16:00:00 24,7 11,2 27,1 7 4 14 8 E 73 0,0
19.09.2020 15:00:00 24,1 11,9 26,5 11 6 22 12 ENE 75 0,0
19.09.2020 14:00:00 22,7 9,9 26,1 11 6 22 12 ENE 70 0,0
19.09.2020 13:00:00 21,4 9,7 24,2 11 6 18 10 E 75 0,0
19.09.2020 12:00:00 20,1 10,3 22,2 11 6 18 10 E 75 0,0
19.09.2020 11:00:00 18,2 9,0 19,8 11 6 18 10 E 75 0,0
19.09.2020 10:00:00 16,2 7,6 16,7 11 6 22 12 E 35 0,0
19.09.2020 09:00:00 13,5 7,5 12,8 7 4 11 6 ENE 66 0,0
19.09.2020 08:00:00 10,3 6,5 7,6 7 4 14 8 NE 48 0,0
19.09.2020 07:00:00 9,4 6,1 6,8 11 6 14 8 NE 72 0,0
19.09.2020 06:00:00 9,9 6,2 7,0 7 4 11 6 NE 49 0,0
19.09.2020 05:00:00 10,5 6,5 8,0 11 6 14 8 NE 75 0,0
19.09.2020 04:00:00 10,5 6,6 8,2 11 6 14 8 NE 75 0,0
19.09.2020 03:00:00 11,3 6,7 7,8 7 4 14 8 ENE 60 0,0
19.09.2020 02:00:00 11,6 6,7 8,9 11 6 14 8 NE 75 0,0
19.09.2020 01:00:00 12,3 6,9 9,7 11 6 14 8 NE 73 0,0
19.09.2020 00:00:00 12,7 7,0 9,8 11 6 18 10 NE 75 0,0
18.09.2020 23:00:00 13,7 7,2 11,2 11 6 18 10 NE 75 0,0
18.09.2020 22:00:00 15,3 7,5 13,0 14 8 22 12 NE 69 0,0
18.09.2020 21:00:00 16,5 8,1 14,4 14 8 22 12 NE 70 0,0
18.09.2020 20:00:00 18,9 8,2 16,8 18 10 25 14 NE 75 0,0
18.09.2020 19:00:00 20,5 10,0 18,7 11 6 25 14 NE 28 0,0
18.09.2020 18:00:00 22,7 10,8 22,0 14 8 29 16 ENE 50 0,0
18.09.2020 17:00:00 22,6 10,8 22,8 18 10 32 18 NE 55 0,0
18.09.2020 16:00:00 22,2 10,5 23,3 22 12 32 18 NE 75 0,0
18.09.2020 15:00:00 22,3 11,2 24,5 14 8 32 18 ENE 73 0,0
18.09.2020 14:00:00 21,3 10,5 23,2 18 10 29 16 ENE 72 0,0
18.09.2020 13:00:00 20,1 10,4 21,9 14 8 29 16 ENE 64 0,0
18.09.2020 12:00:00 17,9 9,2 19,9 18 10 29 16 E 68 0,0
18.09.2020 11:00:00 16,4 8,0 17,7 14 8 25 14 E 69 0,0
18.09.2020 10:00:00 13,8 7,5 14,3 11 6 22 12 ENE 65 0,0
18.09.2020 09:00:00 10,8 6,4 10,5 11 6 18 10 NE 51 0,0
18.09.2020 08:00:00 8,6 5,3 7,3 11 6 18 10 NE 60 0,0
18.09.2020 07:00:00 7,4 4,6 5,3 11 6 14 8 NE 75 0,0
18.09.2020 06:00:00 8,2 5,0 6,1 11 6 18 10 NE 62 0,0
18.09.2020 05:00:00 9,5 5,3 8,0 14 8 22 12 NE 68 0,0
18.09.2020 04:00:00 10,1 5,4 8,8 14 8 22 12 NE 72 0,0
18.09.2020 03:00:00 10,5 5,7 8,6 14 8 18 10 NE 75 0,0
18.09.2020 02:00:00 11,0 5,9 8,6 11 6 18 10 NE 74 0,0
18.09.2020 01:00:00 11,5 6,1 9,9 14 8 22 12 NE 75 0,0
18.09.2020 00:00:00 12,4 6,1 10,9 14 8 25 14 NE 75 0,0
17.09.2020 23:00:00 13,3 5,9 11,3 14 8 25 14 NE 75 0,0
17.09.2020 22:00:00 13,9 6,0 12,3 14 8 25 14 NE 75 0,0
17.09.2020 21:00:00 14,5 6,1 13,0 14 8 29 16 NE 75 0,0
17.09.2020 20:00:00 15,2 6,5 13,8 18 10 25 14 NNE 74 0,0
17.09.2020 19:00:00 16,9 6,7 15,7 18 10 32 18 NNE 44 0,0
17.09.2020 18:00:00 18,4 6,5 17,9 22 12 36 19 NNE 75 0,0
17.09.2020 17:00:00 18,8 7,4 19,1 18 10 36 19 ENE 75 0,0
17.09.2020 16:00:00 19,2 8,8 20,4 18 10 36 19 NE 75 0,0
17.09.2020 15:00:00 18,7 8,7 20,2 22 12 36 19 NE 75 0,0
17.09.2020 14:00:00 17,9 8,3 19,9 25 14 36 19 NE 51 0,0
17.09.2020 13:00:00 16,9 9,4 18,9 22 12 36 19 NE 70 0,0
17.09.2020 12:00:00 16,0 9,5 17,5 25 14 36 19 NE 62 0,0
17.09.2020 11:00:00 15,0 10,2 16,2 22 12 32 18 NE 38 0,0
17.09.2020 10:00:00 13,2 10,2 13,8 14 8 22 12 NE 27 0,0
17.09.2020 09:00:00 11,2 9,9 11,1 11 6 18 10 NNE 23 0,0
17.09.2020 08:00:00 9,7 8,9 8,2 7 4 14 8 N 21 0,0
17.09.2020 07:00:00 10,1 9,1 8,7 11 6 18 10 N 23 0,0
17.09.2020 06:00:00 10,6 9,6 9,3 11 6 18 10 N 23 0,0
17.09.2020 05:00:00 11,4 9,8 10,6 11 6 22 12 N 27 0,0
17.09.2020 04:00:00 12,4 10,5 11,4 11 6 22 12 N 31 0,0
17.09.2020 03:00:00 13,8 11,0 13,2 14 8 25 14 N 41 0,0
17.09.2020 02:00:00 15,0 11,4 14,7 18 10 29 16 N 34 0,0
17.09.2020 01:00:00 16,2 13,4 15,9 14 8 29 16 N 45 0,0
17.09.2020 00:00:00 16,1 14,2 15,3 14 8 29 16 N 29 0,0
16.09.2020 23:00:00 17,3 14,7 16,6 18 10 29 16 N 33 0,0
16.09.2020 22:00:00 19,0 15,3 18,0 18 10 32 18 N 56 0,0
16.09.2020 21:00:00 19,9 14,1 18,6 18 10 25 14 N 75 0,0
16.09.2020 20:00:00 20,9 13,5 19,7 14 8 29 16 N 75 0,0
16.09.2020 19:00:00 23,2 13,9 22,6 18 10 32 18 N 75 0,0
16.09.2020 18:00:00 24,4 14,6 24,4 14 8 36 19 N 74 0,0
16.09.2020 17:00:00 25,4 16,7 26,2 18 10 29 16 N 30 0,0
16.09.2020 16:00:00 26,3 16,7 28,5 18 10 25 14 NW 41 0,0
16.09.2020 15:00:00 26,3 17,2 28,6 14 8 25 14 NNW 21 0,0
16.09.2020 14:00:00 25,8 17,4 28,6 14 8 25 14 NNW 13 0,0
16.09.2020 13:00:00 25,4 17,0 27,9 14 8 25 14 NW 13 0,0
16.09.2020 12:00:00 24,1 17,7 26,4 11 6 14 8 NW 9 0,0
16.09.2020 11:00:00 22,3 17,5 23,6 7 4 14 8 W 7 0,0
16.09.2020 10:00:00 20,3 16,9 20,3 11 6 18 10 W 6 0,0
16.09.2020 09:00:00 18,8 16,0 17,2 7 4 11 6 W 9 0,0
16.09.2020 08:00:00 15,4 14,3 12,1 4 2 7 4 WSW 9 0,0
16.09.2020 07:00:00 14,0 13,4 11,1 7 4 7 4 SSW 7 0,0
16.09.2020 06:00:00 14,2 13,2 11,8 7 4 7 4 SW 9 0,0
16.09.2020 05:00:00 15,0 13,7 12,2 4 2 4 2 SSW 10 0,0
16.09.2020 04:00:00 15,2 14,0 12,4 4 2 7 4 W 15 0,0
16.09.2020 03:00:00 15,3 14,3 12,7 4 2 7 4 WSW 15 0,0
16.09.2020 02:00:00 15,7 14,3 14,0 4 2 7 4 W 16 0,0
16.09.2020 01:00:00 16,3 14,6 14,4 4 2 7 4 SSE 23 0,0
16.09.2020 00:00:00 16,8 14,9 14,6 4 2 11 6 ENE 19 0,0
15.09.2020 23:00:00 18,4 15,5 15,2 4 2 4 2 SSE 26 0,0
15.09.2020 22:00:00 19,6 16,0 16,1 0 0 4 2 N 28 0,0
15.09.2020 21:00:00 21,2 17,1 17,7 4 2 7 4 E 36 0,0
15.09.2020 20:00:00 23,4 18,8 20,7 4 2 7 4 NE 44 0,0
15.09.2020 19:00:00 27,4 19,4 27,1 4 2 7 4 NE 52 0,0
15.09.2020 18:00:00 30,8 17,6 30,1 4 2 7 4 NE 67 0,0
15.09.2020 17:00:00 30,5 16,6 29,1 7 4 11 6 ENE - 0,0
15.09.2020 16:00:00 32,0 17,8 33,2 7 4 14 8 SE 75 0,0
15.09.2020 15:00:00 31,7 17,1 34,8 4 2 14 8 ESE 74 0,0
15.09.2020 14:00:00 31,0 16,1 32,9 4 2 11 6 E 71 0,0
15.09.2020 13:00:00 29,7 17,2 32,1 4 2 14 8 ESE 74 0,0
15.09.2020 12:00:00 27,4 16,0 30,2 4 2 7 4 SE 19 0,0
15.09.2020 11:00:00 24,6 16,2 26,4 7 4 11 6 ESE 44 0,0
15.09.2020 10:00:00 21,5 16,1 22,4 7 4 7 4 SE 38 0,0
15.09.2020 09:00:00 18,4 14,8 17,0 4 2 7 4 ESE 29 0,0
15.09.2020 08:00:00 12,2 11,8 9,5 4 2 4 2 E 11 0,0
15.09.2020 07:00:00 12,4 12,1 9,4 0 0 4 2 N 10 0,0
15.09.2020 06:00:00 12,2 11,8 9,5 0 0 4 2 N 15 0,0
15.09.2020 05:00:00 12,3 11,9 9,7 4 2 4 2 ESE 13 0,0
15.09.2020 04:00:00 13,6 12,9 10,2 0 0 4 2 N 14 0,0
15.09.2020 03:00:00 13,7 12,8 10,7 0 0 4 2 N 15 0,0
15.09.2020 02:00:00 14,8 13,2 11,4 4 2 7 4 E 20 0,0
15.09.2020 01:00:00 14,9 13,4 11,7 4 2 7 4 E 19 0,0
15.09.2020 00:00:00 15,4 14,1 12,1 4 2 4 2 E 17 0,0
14.09.2020 23:00:00 16,6 14,2 13,3 4 2 7 4 ENE 19 0,0
14.09.2020 22:00:00 18,4 14,4 14,6 4 2 7 4 ENE 23 0,0
14.09.2020 21:00:00 21,5 14,8 16,5 7 4 7 4 ENE 35 0,0
14.09.2020 20:00:00 23,1 15,5 19,5 7 4 11 6 NE 37 0,0
14.09.2020 19:00:00 26,2 16,1 23,7 7 4 11 6 ENE 75 0,0
14.09.2020 18:00:00 29,1 14,9 28,0 7 4 18 10 E 69 0,0

tt = Température de l'air
td = dewpoint
tt 5cm = Température de l'air 5cm
ff = Vitesse du vent
fx = gusts
dd = Direction du vent
vv = visibility
rr = Quantités de précipitations

stations d'obs. à proximité